Linda Moran — WDE4187 — position and weather

sailwx.info

Track history (hours):
 
Tides and Currents Weather Stations Pressure Air Temp Water Temp Dewpoint Dewpoint Depression Visibility Wind Speed Wind Dir Waves Ship Positions

Linda Moran

Owner: MORAN TOWING CORP., NEW CANAAN, CT. More information available from US FCC via Universal Licensing System and Coast Guard Vessel Documentation Center.

Last reported at 2017-Sep-22 01:58 UTC. Time now 2017-Sep-23 18:34 UTC.
Position N 39°43' W 075°31'.

Length 156 m; draft 7.6 m.

Type: . MMSI: 367349860.

Date/timePositionNaut miles runAvg speedWind from/ knotsBaromVisibWave heightAir tempDewpointWater temp
2017-Sep-22 01:58N 39°43' W 075°31'0 0.0
2017-Sep-22 01:28N 39°43' W 075°31'0 0.0
2017-Sep-22 00:58N 39°43' W 075°31'0 0.0
2017-Sep-22 00:28N 39°43' W 075°31'0 0.0
2017-Sep-21 23:58N 39°43' W 075°31'0 0.0
2017-Sep-21 23:28N 39°43' W 075°31'0 0.0
2017-Sep-21 22:58N 39°43' W 075°31'0 0.0
2017-Sep-21 22:28N 39°43' W 075°31'0 0.0
2017-Sep-21 21:58N 39°43' W 075°31'0 0.0
2017-Sep-21 21:28N 39°43' W 075°31'0 0.0
2017-Sep-21 20:58N 39°43' W 075°31'0 0.0
2017-Sep-21 20:28N 39°43' W 075°31'0 0.0
2017-Sep-21 19:58N 39°43' W 075°31'0 0.0
2017-Sep-21 19:28N 39°43' W 075°31'0 0.0
2017-Sep-21 19:00N 39°43' W 075°31'1 2.3
2017-Sep-21 18:30N 39°43' W 075°30'0 0.0
2017-Sep-21 17:59N 39°43' W 075°30'0 0.0
2017-Sep-21 17:29N 39°43' W 075°30'0 0.0
2017-Sep-21 16:59N 39°43' W 075°30'0 0.0
2017-Sep-21 16:29N 39°43' W 075°30'0 0.0
2017-Sep-21 15:59N 39°43' W 075°30'0 0.6
2017-Sep-21 15:31N 39°43' W 075°30'3 6.8
2017-Sep-21 15:00N 39°40' W 075°32'4 8.4
2017-Sep-21 14:31N 39°36' W 075°34'3 5.4
2017-Sep-21 14:00N 39°33' W 075°36'4 9.0
2017-Sep-21 13:31N 39°33' W 075°41'5 9.3
2017-Sep-21 13:00N 39°32' W 075°47'4 8.4
2017-Sep-21 12:30N 39°31' W 075°53'5 9.3
2017-Sep-21 12:00N 39°28' W 075°58'4 9.0
2017-Sep-21 11:30N 39°25' W 076°02'4 8.5
2017-Sep-21 11:01N 39°23' W 076°06'4 8.8
2017-Sep-21 10:30N 39°20' W 076°11'4 8.6
2017-Sep-21 10:01N 39°17' W 076°14'5 9.1
2017-Sep-21 09:30N 39°12' W 076°15'5 9.6
2017-Sep-21 09:01N 39°09' W 076°20'5 9.3
2017-Sep-21 08:31N 39°10' W 076°25'5 9.5
2017-Sep-21 08:01N 39°12' W 076°31'3 5.6
2017-Sep-21 07:31N 39°13' W 076°34'0 0.0
2017-Sep-21 07:01N 39°13' W 076°34'0 0.0
2017-Sep-21 06:30N 39°13' W 076°34'0 0.0
2017-Sep-21 06:00N 39°13' W 076°34'0 0.0
2017-Sep-21 05:30N 39°13' W 076°34'0 0.0
2017-Sep-21 05:00N 39°13' W 076°34'0 0.0
2017-Sep-21 04:30N 39°13' W 076°34'0 0.0
2017-Sep-21 04:00N 39°13' W 076°34'0 0.0
2017-Sep-21 03:30N 39°13' W 076°34'0 0.0
2017-Sep-21 03:00N 39°13' W 076°34'0 0.0
2017-Sep-21 02:30N 39°13' W 076°34'0 0.0
2017-Sep-21 02:00N 39°13' W 076°34'0 0.0
2017-Sep-21 01:30N 39°13' W 076°34'0 0.0
2017-Sep-21 01:00N 39°13' W 076°34'0 0.0
2017-Sep-21 00:30N 39°13' W 076°34'0 0.0
2017-Sep-21 00:00N 39°13' W 076°34'0 0.0
2017-Sep-20 23:30N 39°13' W 076°34'0 0.0
2017-Sep-20 23:00N 39°13' W 076°34'0 0.0
2017-Sep-20 22:30N 39°13' W 076°34'0 0.0
2017-Sep-20 22:00N 39°13' W 076°34'0 0.0
2017-Sep-20 21:30N 39°13' W 076°34'0 0.9
2017-Sep-20 21:00N 39°13' W 076°34'1 1.0
2017-Sep-20 20:30N 39°13' W 076°35'0 0.0
2017-Sep-20 20:01N 39°13' W 076°35'0 0.0
2017-Sep-20 19:31N 39°13' W 076°35'0 0.0
2017-Sep-20 19:01N 39°13' W 076°35'0 0.0
2017-Sep-20 18:28N 39°13' W 076°35'0 0.0
2017-Sep-20 18:01N 39°13' W 076°35'0 0.0
2017-Sep-20 17:31N 39°13' W 076°35'0 0.0
2017-Sep-20 17:01N 39°13' W 076°35'0 0.0
2017-Sep-20 16:31N 39°13' W 076°35'0 0.0
2017-Sep-20 16:01N 39°13' W 076°35'0 0.0
2017-Sep-20 15:31N 39°13' W 076°35'0 0.0
2017-Sep-20 15:01N 39°13' W 076°35'0 0.0
2017-Sep-20 14:01N 39°13' W 076°35'0 0.0
2017-Sep-20 13:31N 39°13' W 076°35'0 0.0
2017-Sep-20 13:01N 39°13' W 076°35'0 0.0
2017-Sep-20 12:31N 39°13' W 076°35'0 0.0
2017-Sep-20 12:01N 39°13' W 076°35'0 0.0
2017-Sep-20 11:31N 39°13' W 076°35'0 0.0
2017-Sep-20 11:01N 39°13' W 076°35'0 0.0
2017-Sep-20 10:31N 39°13' W 076°35'0 0.0
2017-Sep-20 10:01N 39°13' W 076°35'0 0.0
2017-Sep-20 09:31N 39°13' W 076°35'0 0.0
2017-Sep-20 09:01N 39°13' W 076°35'0 0.0
2017-Sep-20 08:30N 39°13' W 076°35'0 0.0
2017-Sep-20 08:01N 39°13' W 076°35'0 0.0
2017-Sep-20 07:30N 39°13' W 076°35'0 0.0
2017-Sep-20 07:00N 39°13' W 076°35'0 0.0
2017-Sep-20 06:31N 39°13' W 076°35'0 0.0
2017-Sep-20 06:00N 39°13' W 076°35'0 0.0
2017-Sep-20 05:30N 39°13' W 076°35'0 0.0
2017-Sep-20 05:00N 39°13' W 076°35'0 0.0
2017-Sep-20 04:30N 39°13' W 076°35'0 0.0
2017-Sep-20 04:01N 39°13' W 076°35'0 0.0
2017-Sep-20 03:30N 39°13' W 076°35'0 0.0
2017-Sep-20 03:00N 39°13' W 076°35'0 0.0
2017-Sep-20 02:30N 39°13' W 076°35'0 0.0
2017-Sep-20 02:00N 39°13' W 076°35'0 0.0
2017-Sep-20 01:30N 39°13' W 076°35'0 0.0
2017-Sep-20 01:00N 39°13' W 076°35'0 0.0
2017-Sep-20 00:30N 39°13' W 076°35'0 0.0
2017-Sep-20 00:00N 39°13' W 076°35'0 0.0
2017-Sep-19 23:30N 39°13' W 076°35'0 0.0
2017-Sep-19 23:00N 39°13' W 076°35'0 0.0
2017-Sep-19 22:30N 39°13' W 076°35'2 3.9
2017-Sep-19 22:01N 39°14' W 076°33'2 4.9
2017-Sep-19 21:30N 39°16' W 076°35'0 0.0
2017-Sep-19 21:01N 39°16' W 076°35'3 5.8
2017-Sep-19 20:30N 39°14' W 076°33'2 3.2
2017-Sep-19 19:59N 39°13' W 076°35'0 0.4
2017-Sep-19 19:31N 39°13' W 076°35'3 6.1
2017-Sep-19 19:01N 39°12' W 076°31'5 9.5
2017-Sep-19 18:31N 39°10' W 076°25'5 9.2
2017-Sep-19 18:01N 39°09' W 076°20'510.2
2017-Sep-19 17:31N 39°13' W 076°15'510.7
2017-Sep-19 17:01N 39°18' W 076°13'510.6
2017-Sep-19 16:31N 39°22' W 076°09'510.7
2017-Sep-19 16:01N 39°24' W 076°03'510.6
2017-Sep-19 15:31N 39°28' W 075°58'510.3
2017-Sep-19 15:01N 39°31' W 075°53'5 9.2
2017-Sep-19 14:31N 39°32' W 075°47'5 9.8
2017-Sep-19 14:01N 39°33' W 075°41'5 9.2
2017-Sep-19 13:30N 39°34' W 075°35'2 3.0
2017-Sep-19 13:01N 39°35' W 075°35'0 0.8
2017-Sep-19 12:31N 39°35' W 075°36'0 0.0
2017-Sep-19 12:01N 39°35' W 075°36'0 0.0
2017-Sep-19 11:28N 39°35' W 075°36'0 0.0
2017-Sep-19 10:58N 39°35' W 075°36'0 0.0
2017-Sep-19 10:28N 39°35' W 075°36'0 0.0
2017-Sep-19 09:58N 39°35' W 075°36'0 0.0
2017-Sep-19 09:28N 39°35' W 075°36'0 0.0
2017-Sep-19 08:58N 39°35' W 075°36'0 0.0
2017-Sep-19 08:28N 39°35' W 075°36'0 0.0
2017-Sep-19 07:58N 39°35' W 075°36'0 0.0
2017-Sep-19 07:28N 39°35' W 075°36'0 0.0
2017-Sep-19 06:58N 39°35' W 075°36'0 0.0
2017-Sep-19 06:28N 39°35' W 075°36'0 0.0
2017-Sep-19 05:58N 39°35' W 075°36'0 0.0
2017-Sep-19 05:28N 39°35' W 075°36'0 0.0
2017-Sep-19 04:58N 39°35' W 075°36'0 0.0
2017-Sep-19 04:28N 39°35' W 075°36'0 0.0
2017-Sep-19 03:58N 39°35' W 075°36'0 0.0
2017-Sep-19 03:28N 39°35' W 075°36'0 0.0
2017-Sep-19 02:58N 39°35' W 075°36'0 0.0
2017-Sep-19 02:28N 39°35' W 075°36'0 0.0
2017-Sep-19 01:58N 39°35' W 075°36'0 0.0
2017-Sep-19 01:28N 39°35' W 075°36'0 0.0
2017-Sep-19 00:55N 39°35' W 075°36'0 0.0
2017-Sep-19 00:28N 39°35' W 075°36'0 0.0
2017-Sep-18 23:58N 39°35' W 075°36'0 0.0
2017-Sep-18 23:28N 39°35' W 075°36'0 0.0
2017-Sep-18 22:58N 39°35' W 075°36'0 0.0
2017-Sep-18 22:28N 39°35' W 075°36'0 0.0
2017-Sep-18 21:58N 39°35' W 075°36'0 0.0
2017-Sep-18 21:28N 39°35' W 075°36'0 0.0
2017-Sep-18 20:58N 39°35' W 075°36'0 0.0
2017-Sep-18 20:28N 39°35' W 075°36'0 0.0
2017-Sep-18 19:58N 39°35' W 075°36'0 0.0
2017-Sep-18 19:28N 39°35' W 075°36'0 0.0
2017-Sep-18 18:58N 39°35' W 075°36'0 0.0
2017-Sep-18 18:28N 39°35' W 075°36'0 0.0
2017-Sep-18 17:58N 39°35' W 075°36'0 0.0
2017-Sep-18 17:28N 39°35' W 075°36'0 0.0
2017-Sep-18 16:58N 39°35' W 075°36'0 0.0
2017-Sep-18 16:28N 39°35' W 075°36'0 0.0
2017-Sep-18 15:58N 39°35' W 075°36'0 0.0
2017-Sep-18 15:28N 39°35' W 075°36'0 0.0
2017-Sep-18 14:58N 39°35' W 075°36'0 0.0
2017-Sep-18 14:28N 39°35' W 075°36'0 0.0
2017-Sep-18 13:58N 39°35' W 075°36'0 0.0
2017-Sep-18 13:28N 39°35' W 075°36'0 0.0
2017-Sep-18 12:58N 39°35' W 075°36'0 0.0
2017-Sep-18 12:28N 39°35' W 075°36'0 0.0
2017-Sep-18 11:58N 39°35' W 075°36'0 0.0
2017-Sep-18 11:28N 39°35' W 075°36'0 0.0
2017-Sep-18 10:58N 39°35' W 075°36'0 0.0
2017-Sep-18 10:28N 39°35' W 075°36'0 0.0
2017-Sep-18 09:58N 39°35' W 075°36'0 0.0
2017-Sep-18 09:28N 39°35' W 075°36'0 0.0
2017-Sep-18 09:00N 39°35' W 075°36'0 0.0
2017-Sep-18 08:31N 39°35' W 075°36'2 4.7
2017-Sep-18 08:01N 39°34' W 075°33'4 8.8
2017-Sep-18 07:31N 39°33' W 075°39'4 8.9
2017-Sep-18 07:01N 39°32' W 075°45'4 8.1
2017-Sep-18 06:30N 39°32' W 075°50'4 7.1
2017-Sep-18 06:00N 39°31' W 075°54'4 8.2
2017-Sep-18 05:30N 39°28' W 075°58'4 8.5
2017-Sep-18 05:00N 39°25' W 076°02'4 8.4
2017-Sep-18 04:30N 39°23' W 076°07'4 8.3
2017-Sep-18 04:00N 39°20' W 076°11'4 7.9
2017-Sep-18 03:30N 39°17' W 076°14'4 8.2
2017-Sep-18 03:00N 39°13' W 076°15'4 8.5
2017-Sep-18 02:30N 39°10' W 076°18'4 7.9
2017-Sep-18 02:00N 39°10' W 076°23'5 9.6
2017-Sep-18 01:30N 39°12' W 076°29'4 8.2
2017-Sep-18 01:00N 39°13' W 076°34'1 1.6
2017-Sep-18 00:30N 39°13' W 076°35'0 0.0
2017-Sep-17 23:57N 39°13' W 076°35'0 0.0
2017-Sep-17 23:30N 39°13' W 076°35'0 0.0
2017-Sep-17 23:00N 39°13' W 076°35'0 0.0
2017-Sep-17 22:30N 39°13' W 076°35'0 0.0
2017-Sep-17 22:00N 39°13' W 076°35'0 0.0
2017-Sep-17 21:30N 39°13' W 076°35'0 0.0
2017-Sep-17 21:00N 39°13' W 076°35'0 0.0
2017-Sep-17 20:30N 39°13' W 076°35'0 0.0
2017-Sep-17 20:00N 39°13' W 076°35'0 0.0
2017-Sep-17 19:30N 39°13' W 076°35'0 0.0
2017-Sep-17 19:00N 39°13' W 076°35'0 0.0
2017-Sep-17 18:27N 39°13' W 076°35'0 0.0
2017-Sep-17 18:00N 39°13' W 076°35'0 0.0
2017-Sep-17 17:30N 39°13' W 076°35'0 0.0
2017-Sep-17 17:00N 39°13' W 076°35'0 0.0
2017-Sep-17 16:30N 39°13' W 076°35'0 0.0
2017-Sep-17 16:00N 39°13' W 076°35'0 0.0
2017-Sep-17 15:30N 39°13' W 076°35'0 0.0
2017-Sep-17 15:00N 39°13' W 076°35'0 0.0
2017-Sep-17 13:54N 39°13' W 076°35'0 0.0
2017-Sep-17 13:30N 39°13' W 076°35'0 0.0
2017-Sep-17 13:00N 39°13' W 076°35'0 0.0
2017-Sep-17 12:27N 39°13' W 076°35'0 0.0
2017-Sep-17 12:00N 39°13' W 076°35'0 0.0
2017-Sep-17 11:30N 39°13' W 076°35'0 0.0
2017-Sep-17 11:00N 39°13' W 076°35'0 0.0
2017-Sep-17 10:30N 39°13' W 076°35'0 0.0
2017-Sep-17 10:00N 39°13' W 076°35'0 0.0
2017-Sep-17 09:24N 39°13' W 076°35'0 0.0
2017-Sep-17 09:00N 39°13' W 076°35'0 0.0
2017-Sep-17 08:30N 39°13' W 076°35'0 0.0
2017-Sep-17 07:57N 39°13' W 076°35'0 0.0
2017-Sep-17 07:27N 39°13' W 076°35'0 0.0
2017-Sep-17 06:54N 39°13' W 076°35'0 0.0
2017-Sep-17 06:30N 39°13' W 076°35'0 0.0
2017-Sep-17 06:00N 39°13' W 076°35'0 0.0
2017-Sep-17 05:30N 39°13' W 076°35'0 0.0
2017-Sep-17 05:00N 39°13' W 076°35'0 0.0
2017-Sep-17 04:30N 39°13' W 076°35'0 0.0
2017-Sep-17 04:00N 39°13' W 076°35'0 0.0
2017-Sep-17 03:30N 39°13' W 076°35'0 0.0
2017-Sep-17 03:00N 39°13' W 076°35'0 0.0
2017-Sep-17 02:30N 39°13' W 076°35'0 0.0
2017-Sep-17 02:00N 39°13' W 076°35'0 0.0
2017-Sep-17 01:30N 39°13' W 076°35'0 0.0
2017-Sep-17 01:00N 39°13' W 076°35'0 0.0
2017-Sep-17 00:30N 39°13' W 076°35'0 0.0
2017-Sep-16 23:57N 39°13' W 076°35'0 0.0
2017-Sep-16 23:27N 39°13' W 076°35'0 0.0
2017-Sep-16 23:00N 39°13' W 076°35'0 0.0
2017-Sep-16 22:30N 39°13' W 076°35'0 0.0
2017-Sep-16 22:00N 39°13' W 076°35'0 0.0
2017-Sep-16 21:30N 39°13' W 076°35'0 0.0
2017-Sep-16 21:00N 39°13' W 076°35'0 0.0
2017-Sep-16 20:30N 39°13' W 076°35'0 0.0
2017-Sep-16 19:57N 39°13' W 076°35'0 0.0
2017-Sep-16 19:30N 39°13' W 076°35'0 0.8
2017-Sep-16 19:00N 39°13' W 076°35'2 3.7
2017-Sep-16 18:30N 39°14' W 076°33'0 0.0
2017-Sep-16 18:00N 39°14' W 076°33'0 0.0
2017-Sep-16 17:30N 39°14' W 076°33'0 0.0
2017-Sep-16 17:00N 39°14' W 076°33'0 0.0
2017-Sep-16 16:30N 39°14' W 076°33'0 0.0
2017-Sep-16 16:00N 39°14' W 076°33'0 0.1
2017-Sep-16 15:30N 39°14' W 076°32'0 0.1
2017-Sep-16 15:00N 39°14' W 076°32'0 0.0
2017-Sep-16 14:30N 39°14' W 076°32'0 0.1
2017-Sep-16 14:00N 39°14' W 076°32'0 0.1
2017-Sep-16 13:30N 39°14' W 076°32'0 0.0
2017-Sep-16 13:00N 39°14' W 076°32'0 0.0
2017-Sep-16 12:30N 39°14' W 076°32'0 0.0
2017-Sep-16 12:00N 39°14' W 076°32'0 0.0
2017-Sep-16 11:30N 39°14' W 076°33'0 0.0
2017-Sep-16 11:00N 39°14' W 076°33'0 0.0
2017-Sep-16 10:30N 39°14' W 076°33'0 0.0
2017-Sep-16 10:00N 39°14' W 076°33'0 0.1
2017-Sep-16 09:30N 39°14' W 076°33'0 0.0
2017-Sep-16 09:00N 39°14' W 076°33'0 0.0
2017-Sep-16 08:30N 39°14' W 076°33'0 0.1
2017-Sep-16 08:00N 39°14' W 076°33'0 0.0
2017-Sep-16 07:30N 39°14' W 076°33'0 0.0
2017-Sep-16 07:00N 39°14' W 076°33'0 0.0
2017-Sep-16 06:30N 39°14' W 076°33'0 0.0
2017-Sep-16 06:00N 39°14' W 076°33'0 0.0
2017-Sep-16 05:30N 39°14' W 076°33'0 0.1
2017-Sep-16 05:00N 39°14' W 076°33'0 0.2
2017-Sep-16 04:30N 39°14' W 076°33'2 3.8
2017-Sep-16 04:00N 39°13' W 076°31'5 9.7
2017-Sep-16 03:30N 39°11' W 076°25'5 9.4
2017-Sep-16 03:01N 39°09' W 076°20'5 9.8
2017-Sep-16 02:30N 39°12' W 076°15'510.4
2017-Sep-16 02:00N 39°17' W 076°14'510.3
2017-Sep-16 01:30N 39°21' W 076°09'510.7
2017-Sep-16 01:00N 39°24' W 076°03'510.6
2017-Sep-16 00:30N 39°28' W 075°59'5 9.6
2017-Sep-16 00:00N 39°31' W 075°54'4 8.3
2017-Sep-15 23:30N 39°32' W 075°48'5 9.6
2017-Sep-15 23:00N 39°33' W 075°42'4 8.8
2017-Sep-15 22:30N 39°33' W 075°37'2 4.9
2017-Sep-15 22:00N 39°34' W 075°34'2 3.0
2017-Sep-15 21:30N 39°35' W 075°36'0 0.0
2017-Sep-15 21:00N 39°35' W 075°36'0 0.0
2017-Sep-15 20:30N 39°35' W 075°36'0 0.0
2017-Sep-15 20:00N 39°35' W 075°36'0 0.0
2017-Sep-15 19:30N 39°35' W 075°36'0 0.0
2017-Sep-15 19:00N 39°35' W 075°36'0 0.0
2017-Sep-15 18:30N 39°35' W 075°36'0 0.0
2017-Sep-15 18:00N 39°35' W 075°36'0 0.0
2017-Sep-15 17:30N 39°35' W 075°36'0 0.0
2017-Sep-15 17:00N 39°35' W 075°36'0 0.0
2017-Sep-15 16:30N 39°35' W 075°36'0 0.0
2017-Sep-15 16:00N 39°35' W 075°36'0 0.0
2017-Sep-15 15:30N 39°35' W 075°36'0 0.0
2017-Sep-15 15:00N 39°35' W 075°36'0 0.0
2017-Sep-15 14:30N 39°35' W 075°36'0 0.0
2017-Sep-15 14:00N 39°35' W 075°36'0 0.0
2017-Sep-15 13:30N 39°35' W 075°36'0 0.0
2017-Sep-15 13:00N 39°35' W 075°36'0 0.0
2017-Sep-15 12:30N 39°35' W 075°36'0 0.0
2017-Sep-15 12:00N 39°35' W 075°36'0 0.0
2017-Sep-15 11:30N 39°35' W 075°36'0 0.0
2017-Sep-15 11:00N 39°35' W 075°36'0 0.0
2017-Sep-15 10:30N 39°35' W 075°36'0 0.0
2017-Sep-15 10:00N 39°35' W 075°36'0 0.0
2017-Sep-15 09:30N 39°35' W 075°36'0 0.0
2017-Sep-15 09:00N 39°35' W 075°36'0 0.0
2017-Sep-15 08:30N 39°35' W 075°36'0 0.0
2017-Sep-15 08:00N 39°35' W 075°36'0 0.0
2017-Sep-15 07:30N 39°35' W 075°36'0 0.0
2017-Sep-15 07:00N 39°35' W 075°36'0 0.0
2017-Sep-15 06:30N 39°35' W 075°36'0 0.0
2017-Sep-15 06:00N 39°35' W 075°36'0 0.9
2017-Sep-15 05:30N 39°35' W 075°35'1 2.5
2017-Sep-15 05:01N 39°35' W 075°34'4 8.5
2017-Sep-15 04:30N 39°39' W 075°33'510.0
2017-Sep-15 04:01N 39°44' W 075°30'5 9.6
2017-Sep-15 03:30N 39°48' W 075°26'4 8.3
2017-Sep-15 03:00N 39°50' W 075°22'4 8.5
2017-Sep-15 02:30N 39°51' W 075°16'1 2.1
2017-Sep-15 02:01N 39°51' W 075°15'0 0.0
2017-Sep-15 01:30N 39°51' W 075°15'0 0.0
2017-Sep-15 01:01N 39°51' W 075°15'0 0.0
2017-Sep-15 00:30N 39°51' W 075°15'0 0.0
2017-Sep-15 00:00N 39°51' W 075°15'0 0.0
2017-Sep-14 23:30N 39°51' W 075°15'0 0.0
2017-Sep-14 23:00N 39°51' W 075°15'0 0.0
2017-Sep-14 22:31N 39°51' W 075°15'0 0.0
2017-Sep-14 22:00N 39°51' W 075°15'0 0.0
2017-Sep-14 21:30N 39°51' W 075°15'0 0.0
2017-Sep-14 21:00N 39°51' W 075°15'0 0.0
2017-Sep-14 20:30N 39°51' W 075°15'0 0.0
2017-Sep-14 19:57N 39°51' W 075°15'0 0.0
2017-Sep-14 19:31N 39°51' W 075°15'0 0.0
2017-Sep-14 19:00N 39°51' W 075°15'0 0.0
2017-Sep-14 18:30N 39°51' W 075°15'0 0.0
2017-Sep-14 18:00N 39°51' W 075°15'0 0.0
2017-Sep-14 17:30N 39°51' W 075°15'0 0.0
2017-Sep-14 17:00N 39°51' W 075°15'0 0.0
2017-Sep-14 16:31N 39°51' W 075°15'0 0.0
2017-Sep-14 16:01N 39°51' W 075°15'0 0.0
2017-Sep-14 15:30N 39°51' W 075°15'0 0.0
2017-Sep-14 15:00N 39°51' W 075°15'0 0.0
2017-Sep-14 14:30N 39°51' W 075°15'0 0.0
2017-Sep-14 14:00N 39°51' W 075°15'0 0.0
2017-Sep-14 13:31N 39°51' W 075°15'0 0.0
2017-Sep-14 13:00N 39°51' W 075°15'0 0.0
2017-Sep-14 12:31N 39°51' W 075°15'0 0.0
2017-Sep-14 12:00N 39°51' W 075°15'0 0.0
2017-Sep-14 11:31N 39°51' W 075°15'0 0.0
2017-Sep-14 11:00N 39°51' W 075°15'0 0.0
2017-Sep-14 10:30N 39°51' W 075°15'0 0.0
2017-Sep-14 10:01N 39°51' W 075°15'0 0.0
2017-Sep-14 09:30N 39°51' W 075°15'0 0.0
2017-Sep-14 09:00N 39°51' W 075°15'0 0.0
2017-Sep-14 08:30N 39°51' W 075°15'0 0.0
2017-Sep-14 08:00N 39°51' W 075°15'0 0.0
2017-Sep-14 07:30N 39°51' W 075°15'0 0.0
2017-Sep-14 06:57N 39°51' W 075°15'0 0.0
2017-Sep-14 06:30N 39°51' W 075°15'0 0.0
2017-Sep-14 06:00N 39°51' W 075°15'0 0.0
2017-Sep-14 05:31N 39°51' W 075°15'0 0.0
2017-Sep-14 05:00N 39°51' W 075°15'0 0.0
2017-Sep-14 04:31N 39°51' W 075°15'0 0.0
2017-Sep-14 04:01N 39°51' W 075°15'0 0.0
2017-Sep-14 03:30N 39°51' W 075°15'0 0.0
2017-Sep-14 03:00N 39°51' W 075°15'0 0.0
2017-Sep-14 02:30N 39°51' W 075°15'0 0.0
2017-Sep-14 02:01N 39°51' W 075°15'0 0.0
2017-Sep-14 01:30N 39°51' W 075°15'0 0.0
2017-Sep-14 01:00N 39°51' W 075°15'0 0.0
2017-Sep-14 00:30N 39°51' W 075°15'0 0.0
2017-Sep-14 00:00N 39°51' W 075°15'0 0.0
2017-Sep-13 23:30N 39°51' W 075°15'0 0.0
2017-Sep-13 23:00N 39°51' W 075°15'0 0.0
2017-Sep-13 22:30N 39°51' W 075°15'0 0.0
2017-Sep-13 22:00N 39°51' W 075°15'0 0.0
2017-Sep-13 21:30N 39°51' W 075°15'0 0.0
2017-Sep-13 21:00N 39°51' W 075°15'0 0.0
2017-Sep-13 20:30N 39°51' W 075°15'0 0.0
2017-Sep-13 20:00N 39°51' W 075°15'0 0.0
2017-Sep-13 19:30N 39°51' W 075°15'0 0.0
2017-Sep-13 19:00N 39°51' W 075°15'0 0.0
2017-Sep-13 18:30N 39°51' W 075°15'0 0.0
2017-Sep-13 18:00N 39°51' W 075°15'1 2.5
2017-Sep-13 17:31N 39°52' W 075°14'1 1.9
2017-Sep-13 17:00N 39°52' W 075°13'0 0.0
2017-Sep-13 16:30N 39°52' W 075°13'0 0.4
2017-Sep-13 16:00N 39°52' W 075°12'1 1.7
2017-Sep-13 15:30N 39°53' W 075°12'1 2.0
2017-Sep-13 14:59N 39°52' W 075°13'0 0.0
2017-Sep-13 14:29N 39°52' W 075°13'0 0.0
2017-Sep-13 13:59N 39°52' W 075°13'0 0.0
2017-Sep-13 13:29N 39°52' W 075°13'0 0.1
2017-Sep-13 12:59N 39°52' W 075°13'0 0.2
2017-Sep-13 12:29N 39°52' W 075°12'0 0.0
2017-Sep-13 11:59N 39°52' W 075°12'0 0.0
2017-Sep-13 11:29N 39°52' W 075°12'0 0.0
2017-Sep-13 10:59N 39°52' W 075°12'0 0.0
2017-Sep-13 10:29N 39°52' W 075°12'0 0.0
2017-Sep-13 09:59N 39°52' W 075°12'0 0.0
2017-Sep-13 09:29N 39°52' W 075°12'0 0.0
2017-Sep-13 08:59N 39°52' W 075°12'0 0.0
2017-Sep-13 08:29N 39°52' W 075°12'0 0.0
2017-Sep-13 07:59N 39°52' W 075°12'0 0.0
2017-Sep-13 07:29N 39°52' W 075°12'0 0.2
2017-Sep-13 06:59N 39°52' W 075°13'0 0.2
2017-Sep-13 06:29N 39°52' W 075°13'0 0.1
2017-Sep-13 05:59N 39°52' W 075°13'0 0.0
2017-Sep-13 05:29N 39°52' W 075°13'0 0.0
2017-Sep-13 04:59N 39°52' W 075°13'0 0.0
2017-Sep-13 04:29N 39°52' W 075°13'0 0.0
2017-Sep-13 03:59N 39°52' W 075°13'0 0.0
2017-Sep-13 03:29N 39°52' W 075°13'0 0.0
2017-Sep-13 02:59N 39°52' W 075°13'0 0.0
2017-Sep-13 02:29N 39°52' W 075°13'0 0.0
2017-Sep-13 01:59N 39°52' W 075°13'0 0.0
2017-Sep-13 01:29N 39°52' W 075°13'0 0.0
2017-Sep-13 00:59N 39°52' W 075°13'0 0.3
2017-Sep-13 00:29N 39°52' W 075°12'0 0.1
2017-Sep-12 23:59N 39°52' W 075°12'0 0.0
2017-Sep-12 23:29N 39°52' W 075°12'0 0.0
2017-Sep-12 22:56N 39°52' W 075°12'0 0.0
2017-Sep-12 22:26N 39°52' W 075°12'0 0.0
2017-Sep-12 21:59N 39°52' W 075°12'0 0.0
2017-Sep-12 21:26N 39°52' W 075°12'0 0.0
2017-Sep-12 20:59N 39°52' W 075°12'0 0.0
2017-Sep-12 20:29N 39°52' W 075°12'0 0.0
2017-Sep-12 19:59N 39°52' W 075°12'0 0.0
2017-Sep-12 19:29N 39°52' W 075°12'0 0.0
2017-Sep-12 18:59N 39°52' W 075°12'0 0.0
2017-Sep-12 18:29N 39°52' W 075°12'0 0.3
2017-Sep-12 17:59N 39°52' W 075°13'0 0.1
2017-Sep-12 17:29N 39°52' W 075°13'0 0.1
2017-Sep-12 16:59N 39°52' W 075°13'0 0.1
2017-Sep-12 16:29N 39°52' W 075°13'0 0.1
2017-Sep-12 15:59N 39°52' W 075°13'0 0.0
2017-Sep-12 15:29N 39°52' W 075°13'0 0.0
2017-Sep-12 14:59N 39°52' W 075°13'0 0.0
2017-Sep-12 14:29N 39°52' W 075°13'0 0.0
2017-Sep-12 13:59N 39°52' W 075°13'0 0.0
2017-Sep-12 13:29N 39°52' W 075°13'0 0.0
2017-Sep-12 12:59N 39°52' W 075°13'0 0.0
2017-Sep-12 12:29N 39°52' W 075°13'0 0.1
2017-Sep-12 09:14N 39°52' W 075°12'0 0.0
2017-Sep-12 08:59N 39°52' W 075°12'0 0.0
2017-Sep-12 08:29N 39°52' W 075°12'0 0.0
2017-Sep-12 07:59N 39°52' W 075°12'0 0.0
2017-Sep-12 07:29N 39°52' W 075°12'0 0.0
2017-Sep-12 06:59N 39°52' W 075°12'0 0.0
2017-Sep-12 06:29N 39°52' W 075°12'0 0.3
2017-Sep-12 05:59N 39°52' W 075°13'0 0.1
2017-Sep-12 05:29N 39°52' W 075°13'0 0.1
2017-Sep-12 04:59N 39°52' W 075°13'0 0.0
2017-Sep-12 04:29N 39°52' W 075°13'0 0.0
2017-Sep-12 03:59N 39°52' W 075°13'0 0.0
2017-Sep-12 03:29N 39°52' W 075°13'0 0.0
2017-Sep-12 02:59N 39°52' W 075°13'0 0.0
2017-Sep-12 02:29N 39°52' W 075°13'0 0.0
2017-Sep-12 01:59N 39°52' W 075°13'  
Track history (hours):
 
Tides and Currents Weather Stations Pressure Air Temp Water Temp Dewpoint Dewpoint Depression Visibility Wind Speed Wind Dir Waves Ship Positions

Linda Moran

Owner: MORAN TOWING CORP., NEW CANAAN, CT. More information available from US FCC via Universal Licensing System and Coast Guard Vessel Documentation Center.

Last reported at 2017-Sep-22 01:58 UTC. Time now 2017-Sep-23 18:34 UTC.
Position N 39°43' W 075°31'.

Length 156 m; draft 7.6 m.

Type: . MMSI: 367349860.

Date/timePositionNaut miles runAvg speedWind from/ knotsBaromVisibWave heightAir tempDewpointWater temp
2017-Sep-22 01:58N 39°43' W 075°31'0 0.0
2017-Sep-22 01:28N 39°43' W 075°31'0 0.0
2017-Sep-22 00:58N 39°43' W 075°31'0 0.0
2017-Sep-22 00:28N 39°43' W 075°31'0 0.0
2017-Sep-21 23:58N 39°43' W 075°31'0 0.0
2017-Sep-21 23:28N 39°43' W 075°31'0 0.0
2017-Sep-21 22:58N 39°43' W 075°31'0 0.0
2017-Sep-21 22:28N 39°43' W 075°31'0 0.0
2017-Sep-21 21:58N 39°43' W 075°31'0 0.0
2017-Sep-21 21:28N 39°43' W 075°31'0 0.0
2017-Sep-21 20:58N 39°43' W 075°31'0 0.0
2017-Sep-21 20:28N 39°43' W 075°31'0 0.0
2017-Sep-21 19:58N 39°43' W 075°31'0 0.0
2017-Sep-21 19:28N 39°43' W 075°31'0 0.0
2017-Sep-21 19:00N 39°43' W 075°31'1 2.3
2017-Sep-21 18:30N 39°43' W 075°30'0 0.0
2017-Sep-21 17:59N 39°43' W 075°30'0 0.0
2017-Sep-21 17:29N 39°43' W 075°30'0 0.0
2017-Sep-21 16:59N 39°43' W 075°30'0 0.0
2017-Sep-21 16:29N 39°43' W 075°30'0 0.0
2017-Sep-21 15:59N 39°43' W 075°30'0 0.6
2017-Sep-21 15:31N 39°43' W 075°30'3 6.8
2017-Sep-21 15:00N 39°40' W 075°32'4 8.4
2017-Sep-21 14:31N 39°36' W 075°34'3 5.4
2017-Sep-21 14:00N 39°33' W 075°36'4 9.0
2017-Sep-21 13:31N 39°33' W 075°41'5 9.3
2017-Sep-21 13:00N 39°32' W 075°47'4 8.4
2017-Sep-21 12:30N 39°31' W 075°53'5 9.3
2017-Sep-21 12:00N 39°28' W 075°58'4 9.0
2017-Sep-21 11:30N 39°25' W 076°02'4 8.5
2017-Sep-21 11:01N 39°23' W 076°06'4 8.8
2017-Sep-21 10:30N 39°20' W 076°11'4 8.6
2017-Sep-21 10:01N 39°17' W 076°14'5 9.1
2017-Sep-21 09:30N 39°12' W 076°15'5 9.6
2017-Sep-21 09:01N 39°09' W 076°20'5 9.3
2017-Sep-21 08:31N 39°10' W 076°25'5 9.5
2017-Sep-21 08:01N 39°12' W 076°31'3 5.6
2017-Sep-21 07:31N 39°13' W 076°34'0 0.0
2017-Sep-21 07:01N 39°13' W 076°34'0 0.0
2017-Sep-21 06:30N 39°13' W 076°34'0 0.0
2017-Sep-21 06:00N 39°13' W 076°34'0 0.0
2017-Sep-21 05:30N 39°13' W 076°34'0 0.0
2017-Sep-21 05:00N 39°13' W 076°34'0 0.0
2017-Sep-21 04:30N 39°13' W 076°34'0 0.0
2017-Sep-21 04:00N 39°13' W 076°34'0 0.0
2017-Sep-21 03:30N 39°13' W 076°34'0 0.0
2017-Sep-21 03:00N 39°13' W 076°34'0 0.0
2017-Sep-21 02:30N 39°13' W 076°34'0 0.0
2017-Sep-21 02:00N 39°13' W 076°34'0 0.0
2017-Sep-21 01:30N 39°13' W 076°34'0 0.0
2017-Sep-21 01:00N 39°13' W 076°34'0 0.0
2017-Sep-21 00:30N 39°13' W 076°34'0 0.0
2017-Sep-21 00:00N 39°13' W 076°34'0 0.0
2017-Sep-20 23:30N 39°13' W 076°34'0 0.0
2017-Sep-20 23:00N 39°13' W 076°34'0 0.0
2017-Sep-20 22:30N 39°13' W 076°34'0 0.0
2017-Sep-20 22:00N 39°13' W 076°34'0 0.0
2017-Sep-20 21:30N 39°13' W 076°34'0 0.9
2017-Sep-20 21:00N 39°13' W 076°34'1 1.0
2017-Sep-20 20:30N 39°13' W 076°35'0 0.0
2017-Sep-20 20:01N 39°13' W 076°35'0 0.0
2017-Sep-20 19:31N 39°13' W 076°35'0 0.0
2017-Sep-20 19:01N 39°13' W 076°35'0 0.0
2017-Sep-20 18:28N 39°13' W 076°35'0 0.0
2017-Sep-20 18:01N 39°13' W 076°35'0 0.0
2017-Sep-20 17:31N 39°13' W 076°35'0 0.0
2017-Sep-20 17:01N 39°13' W 076°35'0 0.0
2017-Sep-20 16:31N 39°13' W 076°35'0 0.0
2017-Sep-20 16:01N 39°13' W 076°35'0 0.0
2017-Sep-20 15:31N 39°13' W 076°35'0 0.0
2017-Sep-20 15:01N 39°13' W 076°35'0 0.0
2017-Sep-20 14:01N 39°13' W 076°35'0 0.0
2017-Sep-20 13:31N 39°13' W 076°35'0 0.0
2017-Sep-20 13:01N 39°13' W 076°35'0 0.0
2017-Sep-20 12:31N 39°13' W 076°35'0 0.0
2017-Sep-20 12:01N 39°13' W 076°35'0 0.0
2017-Sep-20 11:31N 39°13' W 076°35'0 0.0
2017-Sep-20 11:01N 39°13' W 076°35'0 0.0
2017-Sep-20 10:31N 39°13' W 076°35'0 0.0
2017-Sep-20 10:01N 39°13' W 076°35'0 0.0
2017-Sep-20 09:31N 39°13' W 076°35'0 0.0
2017-Sep-20 09:01N 39°13' W 076°35'0 0.0
2017-Sep-20 08:30N 39°13' W 076°35'0 0.0
2017-Sep-20 08:01N 39°13' W 076°35'0 0.0
2017-Sep-20 07:30N 39°13' W 076°35'0 0.0
2017-Sep-20 07:00N 39°13' W 076°35'0 0.0
2017-Sep-20 06:31N 39°13' W 076°35'0 0.0
2017-Sep-20 06:00N 39°13' W 076°35'0 0.0
2017-Sep-20 05:30N 39°13' W 076°35'0 0.0
2017-Sep-20 05:00N 39°13' W 076°35'0 0.0
2017-Sep-20 04:30N 39°13' W 076°35'0 0.0
2017-Sep-20 04:01N 39°13' W 076°35'0 0.0
2017-Sep-20 03:30N 39°13' W 076°35'0 0.0
2017-Sep-20 03:00N 39°13' W 076°35'0 0.0
2017-Sep-20 02:30N 39°13' W 076°35'0 0.0
2017-Sep-20 02:00N 39°13' W 076°35'0 0.0
2017-Sep-20 01:30N 39°13' W 076°35'0 0.0
2017-Sep-20 01:00N 39°13' W 076°35'0 0.0
2017-Sep-20 00:30N 39°13' W 076°35'0 0.0
2017-Sep-20 00:00N 39°13' W 076°35'0 0.0
2017-Sep-19 23:30N 39°13' W 076°35'0 0.0
2017-Sep-19 23:00N 39°13' W 076°35'0 0.0
2017-Sep-19 22:30N 39°13' W 076°35'2 3.9
2017-Sep-19 22:01N 39°14' W 076°33'2 4.9
2017-Sep-19 21:30N 39°16' W 076°35'0 0.0
2017-Sep-19 21:01N 39°16' W 076°35'3 5.8
2017-Sep-19 20:30N 39°14' W 076°33'2 3.2
2017-Sep-19 19:59N 39°13' W 076°35'0 0.4
2017-Sep-19 19:31N 39°13' W 076°35'3 6.1
2017-Sep-19 19:01N 39°12' W 076°31'5 9.5
2017-Sep-19 18:31N 39°10' W 076°25'5 9.2
2017-Sep-19 18:01N 39°09' W 076°20'510.2
2017-Sep-19 17:31N 39°13' W 076°15'510.7
2017-Sep-19 17:01N 39°18' W 076°13'510.6
2017-Sep-19 16:31N 39°22' W 076°09'510.7
2017-Sep-19 16:01N 39°24' W 076°03'510.6
2017-Sep-19 15:31N 39°28' W 075°58'510.3
2017-Sep-19 15:01N 39°31' W 075°53'5 9.2
2017-Sep-19 14:31N 39°32' W 075°47'5 9.8
2017-Sep-19 14:01N 39°33' W 075°41'5 9.2
2017-Sep-19 13:30N 39°34' W 075°35'2 3.0
2017-Sep-19 13:01N 39°35' W 075°35'0 0.8
2017-Sep-19 12:31N 39°35' W 075°36'0 0.0
2017-Sep-19 12:01N 39°35' W 075°36'0 0.0
2017-Sep-19 11:28N 39°35' W 075°36'0 0.0
2017-Sep-19 10:58N 39°35' W 075°36'0 0.0
2017-Sep-19 10:28N 39°35' W 075°36'0 0.0
2017-Sep-19 09:58N 39°35' W 075°36'0 0.0
2017-Sep-19 09:28N 39°35' W 075°36'0 0.0
2017-Sep-19 08:58N 39°35' W 075°36'0 0.0
2017-Sep-19 08:28N 39°35' W 075°36'0 0.0
2017-Sep-19 07:58N 39°35' W 075°36'0 0.0
2017-Sep-19 07:28N 39°35' W 075°36'0 0.0
2017-Sep-19 06:58N 39°35' W 075°36'0 0.0
2017-Sep-19 06:28N 39°35' W 075°36'0 0.0
2017-Sep-19 05:58N 39°35' W 075°36'0 0.0
2017-Sep-19 05:28N 39°35' W 075°36'0 0.0
2017-Sep-19 04:58N 39°35' W 075°36'0 0.0
2017-Sep-19 04:28N 39°35' W 075°36'0 0.0
2017-Sep-19 03:58N 39°35' W 075°36'0 0.0
2017-Sep-19 03:28N 39°35' W 075°36'0 0.0
2017-Sep-19 02:58N 39°35' W 075°36'0 0.0
2017-Sep-19 02:28N 39°35' W 075°36'0 0.0
2017-Sep-19 01:58N 39°35' W 075°36'0 0.0
2017-Sep-19 01:28N 39°35' W 075°36'0 0.0
2017-Sep-19 00:55N 39°35' W 075°36'0 0.0
2017-Sep-19 00:28N 39°35' W 075°36'0 0.0
2017-Sep-18 23:58N 39°35' W 075°36'0 0.0
2017-Sep-18 23:28N 39°35' W 075°36'0 0.0
2017-Sep-18 22:58N 39°35' W 075°36'0 0.0
2017-Sep-18 22:28N 39°35' W 075°36'0 0.0
2017-Sep-18 21:58N 39°35' W 075°36'0 0.0
2017-Sep-18 21:28N 39°35' W 075°36'0 0.0
2017-Sep-18 20:58N 39°35' W 075°36'0 0.0
2017-Sep-18 20:28N 39°35' W 075°36'0 0.0
2017-Sep-18 19:58N 39°35' W 075°36'0 0.0
2017-Sep-18 19:28N 39°35' W 075°36'0 0.0
2017-Sep-18 18:58N 39°35' W 075°36'0 0.0
2017-Sep-18 18:28N 39°35' W 075°36'0 0.0
2017-Sep-18 17:58N 39°35' W 075°36'0 0.0
2017-Sep-18 17:28N 39°35' W 075°36'0 0.0
2017-Sep-18 16:58N 39°35' W 075°36'0 0.0
2017-Sep-18 16:28N 39°35' W 075°36'0 0.0
2017-Sep-18 15:58N 39°35' W 075°36'0 0.0
2017-Sep-18 15:28N 39°35' W 075°36'0 0.0
2017-Sep-18 14:58N 39°35' W 075°36'0 0.0
2017-Sep-18 14:28N 39°35' W 075°36'0 0.0
2017-Sep-18 13:58N 39°35' W 075°36'0 0.0
2017-Sep-18 13:28N 39°35' W 075°36'0 0.0
2017-Sep-18 12:58N 39°35' W 075°36'0 0.0
2017-Sep-18 12:28N 39°35' W 075°36'0 0.0
2017-Sep-18 11:58N 39°35' W 075°36'0 0.0
2017-Sep-18 11:28N 39°35' W 075°36'0 0.0
2017-Sep-18 10:58N 39°35' W 075°36'0 0.0
2017-Sep-18 10:28N 39°35' W 075°36'0 0.0
2017-Sep-18 09:58N 39°35' W 075°36'0 0.0
2017-Sep-18 09:28N 39°35' W 075°36'0 0.0
2017-Sep-18 09:00N 39°35' W 075°36'0 0.0
2017-Sep-18 08:31N 39°35' W 075°36'2 4.7
2017-Sep-18 08:01N 39°34' W 075°33'4 8.8
2017-Sep-18 07:31N 39°33' W 075°39'4 8.9
2017-Sep-18 07:01N 39°32' W 075°45'4 8.1
2017-Sep-18 06:30N 39°32' W 075°50'4 7.1
2017-Sep-18 06:00N 39°31' W 075°54'4 8.2
2017-Sep-18 05:30N 39°28' W 075°58'4 8.5
2017-Sep-18 05:00N 39°25' W 076°02'4 8.4
2017-Sep-18 04:30N 39°23' W 076°07'4 8.3
2017-Sep-18 04:00N 39°20' W 076°11'4 7.9
2017-Sep-18 03:30N 39°17' W 076°14'4 8.2
2017-Sep-18 03:00N 39°13' W 076°15'4 8.5
2017-Sep-18 02:30N 39°10' W 076°18'4 7.9
2017-Sep-18 02:00N 39°10' W 076°23'5 9.6
2017-Sep-18 01:30N 39°12' W 076°29'4 8.2
2017-Sep-18 01:00N 39°13' W 076°34'1 1.6
2017-Sep-18 00:30N 39°13' W 076°35'0 0.0
2017-Sep-17 23:57N 39°13' W 076°35'0 0.0
2017-Sep-17 23:30N 39°13' W 076°35'0 0.0
2017-Sep-17 23:00N 39°13' W 076°35'0 0.0
2017-Sep-17 22:30N 39°13' W 076°35'0 0.0
2017-Sep-17 22:00N 39°13' W 076°35'0 0.0
2017-Sep-17 21:30N 39°13' W 076°35'0 0.0
2017-Sep-17 21:00N 39°13' W 076°35'0 0.0
2017-Sep-17 20:30N 39°13' W 076°35'0 0.0
2017-Sep-17 20:00N 39°13' W 076°35'0 0.0
2017-Sep-17 19:30N 39°13' W 076°35'0 0.0
2017-Sep-17 19:00N 39°13' W 076°35'0 0.0
2017-Sep-17 18:27N 39°13' W 076°35'0 0.0
2017-Sep-17 18:00N 39°13' W 076°35'0 0.0
2017-Sep-17 17:30N 39°13' W 076°35'0 0.0
2017-Sep-17 17:00N 39°13' W 076°35'0 0.0
2017-Sep-17 16:30N 39°13' W 076°35'0 0.0
2017-Sep-17 16:00N 39°13' W 076°35'0 0.0
2017-Sep-17 15:30N 39°13' W 076°35'0 0.0
2017-Sep-17 15:00N 39°13' W 076°35'0 0.0
2017-Sep-17 13:54N 39°13' W 076°35'0 0.0
2017-Sep-17 13:30N 39°13' W 076°35'0 0.0
2017-Sep-17 13:00N 39°13' W 076°35'0 0.0
2017-Sep-17 12:27N 39°13' W 076°35'0 0.0
2017-Sep-17 12:00N 39°13' W 076°35'0 0.0
2017-Sep-17 11:30N 39°13' W 076°35'0 0.0
2017-Sep-17 11:00N 39°13' W 076°35'0 0.0
2017-Sep-17 10:30N 39°13' W 076°35'0 0.0
2017-Sep-17 10:00N 39°13' W 076°35'0 0.0
2017-Sep-17 09:24N 39°13' W 076°35'0 0.0
2017-Sep-17 09:00N 39°13' W 076°35'0 0.0
2017-Sep-17 08:30N 39°13' W 076°35'0 0.0
2017-Sep-17 07:57N 39°13' W 076°35'0 0.0
2017-Sep-17 07:27N 39°13' W 076°35'0 0.0
2017-Sep-17 06:54N 39°13' W 076°35'0 0.0
2017-Sep-17 06:30N 39°13' W 076°35'0 0.0
2017-Sep-17 06:00N 39°13' W 076°35'0 0.0
2017-Sep-17 05:30N 39°13' W 076°35'0 0.0
2017-Sep-17 05:00N 39°13' W 076°35'0 0.0
2017-Sep-17 04:30N 39°13' W 076°35'0 0.0
2017-Sep-17 04:00N 39°13' W 076°35'0 0.0
2017-Sep-17 03:30N 39°13' W 076°35'0 0.0
2017-Sep-17 03:00N 39°13' W 076°35'0 0.0
2017-Sep-17 02:30N 39°13' W 076°35'0 0.0
2017-Sep-17 02:00N 39°13' W 076°35'0 0.0
2017-Sep-17 01:30N 39°13' W 076°35'0 0.0
2017-Sep-17 01:00N 39°13' W 076°35'0 0.0
2017-Sep-17 00:30N 39°13' W 076°35'0 0.0
2017-Sep-16 23:57N 39°13' W 076°35'0 0.0
2017-Sep-16 23:27N 39°13' W 076°35'0 0.0
2017-Sep-16 23:00N 39°13' W 076°35'0 0.0
2017-Sep-16 22:30N 39°13' W 076°35'0 0.0
2017-Sep-16 22:00N 39°13' W 076°35'0 0.0
2017-Sep-16 21:30N 39°13' W 076°35'0 0.0
2017-Sep-16 21:00N 39°13' W 076°35'0 0.0
2017-Sep-16 20:30N 39°13' W 076°35'0 0.0
2017-Sep-16 19:57N 39°13' W 076°35'0 0.0
2017-Sep-16 19:30N 39°13' W 076°35'0 0.8
2017-Sep-16 19:00N 39°13' W 076°35'2 3.7
2017-Sep-16 18:30N 39°14' W 076°33'0 0.0
2017-Sep-16 18:00N 39°14' W 076°33'0 0.0
2017-Sep-16 17:30N 39°14' W 076°33'0 0.0
2017-Sep-16 17:00N 39°14' W 076°33'0 0.0
2017-Sep-16 16:30N 39°14' W 076°33'0 0.0
2017-Sep-16 16:00N 39°14' W 076°33'0 0.1
2017-Sep-16 15:30N 39°14' W 076°32'0 0.1
2017-Sep-16 15:00N 39°14' W 076°32'0 0.0
2017-Sep-16 14:30N 39°14' W 076°32'0 0.1
2017-Sep-16 14:00N 39°14' W 076°32'0 0.1
2017-Sep-16 13:30N 39°14' W 076°32'0 0.0
2017-Sep-16 13:00N 39°14' W 076°32'0 0.0
2017-Sep-16 12:30N 39°14' W 076°32'0 0.0
2017-Sep-16 12:00N 39°14' W 076°32'0 0.0
2017-Sep-16 11:30N 39°14' W 076°33'0 0.0
2017-Sep-16 11:00N 39°14' W 076°33'0 0.0
2017-Sep-16 10:30N 39°14' W 076°33'0 0.0
2017-Sep-16 10:00N 39°14' W 076°33'0 0.1
2017-Sep-16 09:30N 39°14' W 076°33'0 0.0
2017-Sep-16 09:00N 39°14' W 076°33'0 0.0
2017-Sep-16 08:30N 39°14' W 076°33'0 0.1
2017-Sep-16 08:00N 39°14' W 076°33'0 0.0
2017-Sep-16 07:30N 39°14' W 076°33'0 0.0
2017-Sep-16 07:00N 39°14' W 076°33'0 0.0
2017-Sep-16 06:30N 39°14' W 076°33'0 0.0
2017-Sep-16 06:00N 39°14' W 076°33'0 0.0
2017-Sep-16 05:30N 39°14' W 076°33'0 0.1
2017-Sep-16 05:00N 39°14' W 076°33'0 0.2
2017-Sep-16 04:30N 39°14' W 076°33'2 3.8
2017-Sep-16 04:00N 39°13' W 076°31'5 9.7
2017-Sep-16 03:30N 39°11' W 076°25'5 9.4
2017-Sep-16 03:01N 39°09' W 076°20'5 9.8
2017-Sep-16 02:30N 39°12' W 076°15'510.4
2017-Sep-16 02:00N 39°17' W 076°14'510.3
2017-Sep-16 01:30N 39°21' W 076°09'510.7
2017-Sep-16 01:00N 39°24' W 076°03'510.6
2017-Sep-16 00:30N 39°28' W 075°59'5 9.6
2017-Sep-16 00:00N 39°31' W 075°54'4 8.3
2017-Sep-15 23:30N 39°32' W 075°48'5 9.6
2017-Sep-15 23:00N 39°33' W 075°42'4 8.8
2017-Sep-15 22:30N 39°33' W 075°37'2 4.9
2017-Sep-15 22:00N 39°34' W 075°34'2 3.0
2017-Sep-15 21:30N 39°35' W 075°36'0 0.0
2017-Sep-15 21:00N 39°35' W 075°36'0 0.0
2017-Sep-15 20:30N 39°35' W 075°36'0 0.0
2017-Sep-15 20:00N 39°35' W 075°36'0 0.0
2017-Sep-15 19:30N 39°35' W 075°36'0 0.0
2017-Sep-15 19:00N 39°35' W 075°36'0 0.0
2017-Sep-15 18:30N 39°35' W 075°36'0 0.0
2017-Sep-15 18:00N 39°35' W 075°36'0 0.0
2017-Sep-15 17:30N 39°35' W 075°36'0 0.0
2017-Sep-15 17:00N 39°35' W 075°36'0 0.0
2017-Sep-15 16:30N 39°35' W 075°36'0 0.0
2017-Sep-15 16:00N 39°35' W 075°36'0 0.0
2017-Sep-15 15:30N 39°35' W 075°36'0 0.0
2017-Sep-15 15:00N 39°35' W 075°36'0 0.0
2017-Sep-15 14:30N 39°35' W 075°36'0 0.0
2017-Sep-15 14:00N 39°35' W 075°36'0 0.0
2017-Sep-15 13:30N 39°35' W 075°36'0 0.0
2017-Sep-15 13:00N 39°35' W 075°36'0 0.0
2017-Sep-15 12:30N 39°35' W 075°36'0 0.0
2017-Sep-15 12:00N 39°35' W 075°36'0 0.0
2017-Sep-15 11:30N 39°35' W 075°36'0 0.0
2017-Sep-15 11:00N 39°35' W 075°36'0 0.0
2017-Sep-15 10:30N 39°35' W 075°36'0 0.0
2017-Sep-15 10:00N 39°35' W 075°36'0 0.0
2017-Sep-15 09:30N 39°35' W 075°36'0 0.0
2017-Sep-15 09:00N 39°35' W 075°36'0 0.0
2017-Sep-15 08:30N 39°35' W 075°36'0 0.0
2017-Sep-15 08:00N 39°35' W 075°36'0 0.0
2017-Sep-15 07:30N 39°35' W 075°36'0 0.0
2017-Sep-15 07:00N 39°35' W 075°36'0 0.0
2017-Sep-15 06:30N 39°35' W 075°36'0 0.0
2017-Sep-15 06:00N 39°35' W 075°36'0 0.9
2017-Sep-15 05:30N 39°35' W 075°35'1 2.5
2017-Sep-15 05:01N 39°35' W 075°34'4 8.5
2017-Sep-15 04:30N 39°39' W 075°33'510.0
2017-Sep-15 04:01N 39°44' W 075°30'5 9.6
2017-Sep-15 03:30N 39°48' W 075°26'4 8.3
2017-Sep-15 03:00N 39°50' W 075°22'4 8.5
2017-Sep-15 02:30N 39°51' W 075°16'1 2.1
2017-Sep-15 02:01N 39°51' W 075°15'0 0.0
2017-Sep-15 01:30N 39°51' W 075°15'0 0.0
2017-Sep-15 01:01N 39°51' W 075°15'0 0.0
2017-Sep-15 00:30N 39°51' W 075°15'0 0.0
2017-Sep-15 00:00N 39°51' W 075°15'0 0.0
2017-Sep-14 23:30N 39°51' W 075°15'0 0.0
2017-Sep-14 23:00N 39°51' W 075°15'0 0.0
2017-Sep-14 22:31N 39°51' W 075°15'0 0.0
2017-Sep-14 22:00N 39°51' W 075°15'0 0.0
2017-Sep-14 21:30N 39°51' W 075°15'0 0.0
2017-Sep-14 21:00N 39°51' W 075°15'0 0.0
2017-Sep-14 20:30N 39°51' W 075°15'0 0.0
2017-Sep-14 19:57N 39°51' W 075°15'0 0.0
2017-Sep-14 19:31N 39°51' W 075°15'0 0.0
2017-Sep-14 19:00N 39°51' W 075°15'0 0.0
2017-Sep-14 18:30N 39°51' W 075°15'0 0.0
2017-Sep-14 18:00N 39°51' W 075°15'0 0.0
2017-Sep-14 17:30N 39°51' W 075°15'0 0.0
2017-Sep-14 17:00N 39°51' W 075°15'0 0.0
2017-Sep-14 16:31N 39°51' W 075°15'0 0.0
2017-Sep-14 16:01N 39°51' W 075°15'0 0.0
2017-Sep-14 15:30N 39°51' W 075°15'0 0.0
2017-Sep-14 15:00N 39°51' W 075°15'0 0.0
2017-Sep-14 14:30N 39°51' W 075°15'0 0.0
2017-Sep-14 14:00N 39°51' W 075°15'0 0.0
2017-Sep-14 13:31N 39°51' W 075°15'0 0.0
2017-Sep-14 13:00N 39°51' W 075°15'0 0.0
2017-Sep-14 12:31N 39°51' W 075°15'0 0.0
2017-Sep-14 12:00N 39°51' W 075°15'0 0.0
2017-Sep-14 11:31N 39°51' W 075°15'0 0.0
2017-Sep-14 11:00N 39°51' W 075°15'0 0.0
2017-Sep-14 10:30N 39°51' W 075°15'0 0.0
2017-Sep-14 10:01N 39°51' W 075°15'0 0.0
2017-Sep-14 09:30N 39°51' W 075°15'0 0.0
2017-Sep-14 09:00N 39°51' W 075°15'0 0.0
2017-Sep-14 08:30N 39°51' W 075°15'0 0.0
2017-Sep-14 08:00N 39°51' W 075°15'0 0.0
2017-Sep-14 07:30N 39°51' W 075°15'0 0.0
2017-Sep-14 06:57N 39°51' W 075°15'0 0.0
2017-Sep-14 06:30N 39°51' W 075°15'0 0.0
2017-Sep-14 06:00N 39°51' W 075°15'0 0.0
2017-Sep-14 05:31N 39°51' W 075°15'0 0.0
2017-Sep-14 05:00N 39°51' W 075°15'0 0.0
2017-Sep-14 04:31N 39°51' W 075°15'0 0.0
2017-Sep-14 04:01N 39°51' W 075°15'0 0.0
2017-Sep-14 03:30N 39°51' W 075°15'0 0.0
2017-Sep-14 03:00N 39°51' W 075°15'0 0.0
2017-Sep-14 02:30N 39°51' W 075°15'0 0.0
2017-Sep-14 02:01N 39°51' W 075°15'0 0.0
2017-Sep-14 01:30N 39°51' W 075°15'0 0.0
2017-Sep-14 01:00N 39°51' W 075°15'0 0.0
2017-Sep-14 00:30N 39°51' W 075°15'0 0.0
2017-Sep-14 00:00N 39°51' W 075°15'0 0.0
2017-Sep-13 23:30N 39°51' W 075°15'0 0.0
2017-Sep-13 23:00N 39°51' W 075°15'0 0.0
2017-Sep-13 22:30N 39°51' W 075°15'0 0.0
2017-Sep-13 22:00N 39°51' W 075°15'0 0.0
2017-Sep-13 21:30N 39°51' W 075°15'0 0.0
2017-Sep-13 21:00N 39°51' W 075°15'0 0.0
2017-Sep-13 20:30N 39°51' W 075°15'0 0.0
2017-Sep-13 20:00N 39°51' W 075°15'0 0.0
2017-Sep-13 19:30N 39°51' W 075°15'0 0.0
2017-Sep-13 19:00N 39°51' W 075°15'0 0.0
2017-Sep-13 18:30N 39°51' W 075°15'0 0.0
2017-Sep-13 18:00N 39°51' W 075°15'1 2.5
2017-Sep-13 17:31N 39°52' W 075°14'1 1.9
2017-Sep-13 17:00N 39°52' W 075°13'0 0.0
2017-Sep-13 16:30N 39°52' W 075°13'0 0.4
2017-Sep-13 16:00N 39°52' W 075°12'1 1.7
2017-Sep-13 15:30N 39°53' W 075°12'1 2.0
2017-Sep-13 14:59N 39°52' W 075°13'0 0.0
2017-Sep-13 14:29N 39°52' W 075°13'0 0.0
2017-Sep-13 13:59N 39°52' W 075°13'0 0.0
2017-Sep-13 13:29N 39°52' W 075°13'0 0.1
2017-Sep-13 12:59N 39°52' W 075°13'0 0.2
2017-Sep-13 12:29N 39°52' W 075°12'0 0.0
2017-Sep-13 11:59N 39°52' W 075°12'0 0.0
2017-Sep-13 11:29N 39°52' W 075°12'0 0.0
2017-Sep-13 10:59N 39°52' W 075°12'0 0.0
2017-Sep-13 10:29N 39°52' W 075°12'0 0.0
2017-Sep-13 09:59N 39°52' W 075°12'0 0.0
2017-Sep-13 09:29N 39°52' W 075°12'0 0.0
2017-Sep-13 08:59N 39°52' W 075°12'0 0.0
2017-Sep-13 08:29N 39°52' W 075°12'0 0.0
2017-Sep-13 07:59N 39°52' W 075°12'0 0.0
2017-Sep-13 07:29N 39°52' W 075°12'0 0.2
2017-Sep-13 06:59N 39°52' W 075°13'0 0.2
2017-Sep-13 06:29N 39°52' W 075°13'0 0.1
2017-Sep-13 05:59N 39°52' W 075°13'0 0.0
2017-Sep-13 05:29N 39°52' W 075°13'0 0.0
2017-Sep-13 04:59N 39°52' W 075°13'0 0.0
2017-Sep-13 04:29N 39°52' W 075°13'0 0.0
2017-Sep-13 03:59N 39°52' W 075°13'0 0.0
2017-Sep-13 03:29N 39°52' W 075°13'0 0.0
2017-Sep-13 02:59N 39°52' W 075°13'0 0.0
2017-Sep-13 02:29N 39°52' W 075°13'0 0.0
2017-Sep-13 01:59N 39°52' W 075°13'0 0.0
2017-Sep-13 01:29N 39°52' W 075°13'0 0.0
2017-Sep-13 00:59N 39°52' W 075°13'0 0.3
2017-Sep-13 00:29N 39°52' W 075°12'0 0.1
2017-Sep-12 23:59N 39°52' W 075°12'0 0.0
2017-Sep-12 23:29N 39°52' W 075°12'0 0.0
2017-Sep-12 22:56N 39°52' W 075°12'0 0.0
2017-Sep-12 22:26N 39°52' W 075°12'0 0.0
2017-Sep-12 21:59N 39°52' W 075°12'0 0.0
2017-Sep-12 21:26N 39°52' W 075°12'0 0.0
2017-Sep-12 20:59N 39°52' W 075°12'0 0.0
2017-Sep-12 20:29N 39°52' W 075°12'0 0.0
2017-Sep-12 19:59N 39°52' W 075°12'0 0.0
2017-Sep-12 19:29N 39°52' W 075°12'0 0.0
2017-Sep-12 18:59N 39°52' W 075°12'0 0.0
2017-Sep-12 18:29N 39°52' W 075°12'0 0.3
2017-Sep-12 17:59N 39°52' W 075°13'0 0.1
2017-Sep-12 17:29N 39°52' W 075°13'0 0.1
2017-Sep-12 16:59N 39°52' W 075°13'0 0.1
2017-Sep-12 16:29N 39°52' W 075°13'0 0.1
2017-Sep-12 15:59N 39°52' W 075°13'0 0.0
2017-Sep-12 15:29N 39°52' W 075°13'0 0.0
2017-Sep-12 14:59N 39°52' W 075°13'0 0.0
2017-Sep-12 14:29N 39°52' W 075°13'0 0.0
2017-Sep-12 13:59N 39°52' W 075°13'0 0.0
2017-Sep-12 13:29N 39°52' W 075°13'0 0.0
2017-Sep-12 12:59N 39°52' W 075°13'0 0.0
2017-Sep-12 12:29N 39°52' W 075°13'0 0.1
2017-Sep-12 09:14N 39°52' W 075°12'0 0.0
2017-Sep-12 08:59N 39°52' W 075°12'0 0.0
2017-Sep-12 08:29N 39°52' W 075°12'0 0.0
2017-Sep-12 07:59N 39°52' W 075°12'0 0.0
2017-Sep-12 07:29N 39°52' W 075°12'0 0.0
2017-Sep-12 06:59N 39°52' W 075°12'0 0.0
2017-Sep-12 06:29N 39°52' W 075°12'0 0.3
2017-Sep-12 05:59N 39°52' W 075°13'0 0.1
2017-Sep-12 05:29N 39°52' W 075°13'0 0.1
2017-Sep-12 04:59N 39°52' W 075°13'0 0.0
2017-Sep-12 04:29N 39°52' W 075°13'0 0.0
2017-Sep-12 03:59N 39°52' W 075°13'0 0.0
2017-Sep-12 03:29N 39°52' W 075°13'0 0.0
2017-Sep-12 02:59N 39°52' W 075°13'0 0.0
2017-Sep-12 02:29N 39°52' W 075°13'0 0.0
2017-Sep-12 01:59N 39°52' W 075°13'  

Dump ship's entire track history